createdAt,value
2023-02-25T00:00:19.526Z,11.40
2023-02-25T00:05:24.145Z,11.13
2023-02-25T00:10:27.056Z,9.97
2023-02-25T00:15:29.966Z,11.07
2023-02-25T00:20:34.259Z,9.13
2023-02-25T00:25:37.547Z,7.23
2023-02-25T00:30:42.488Z,10.50
2023-02-25T00:35:50.002Z,7.10
2023-02-25T00:40:52.956Z,7.77
2023-02-25T00:45:55.857Z,12.40
2023-02-25T00:51:06.188Z,11.40
2023-02-25T00:56:11.397Z,11.63
2023-02-25T01:01:19.983Z,13.53
2023-02-25T01:06:25.217Z,11.53
2023-02-25T01:11:30.650Z,11.63
2023-02-25T01:16:35.086Z,12.40
2023-02-25T01:21:43.820Z,11.90
2023-02-25T01:26:48.092Z,14.77
2023-02-25T01:31:53.662Z,9.40
2023-02-25T01:36:58.461Z,13.83
2023-02-25T01:42:05.475Z,12.20
2023-02-25T01:47:10.157Z,13.13
2023-02-25T01:52:19.770Z,12.93
2023-02-25T01:57:23.742Z,9.43
2023-02-25T02:02:29.780Z,9.23
2023-02-25T02:07:34.215Z,16.03
2023-02-25T02:12:40.031Z,9.83
2023-02-25T02:17:47.548Z,8.53
2023-02-25T02:23:00.847Z,15.13
2023-02-25T02:28:37.271Z,9.13
2023-02-25T02:33:49.532Z,9.77
2023-02-25T02:38:59.347Z,9.40
2023-02-25T02:44:10.092Z,5.50
2023-02-25T02:49:22.002Z,7.47
2023-02-25T02:54:28.293Z,8.20
2023-02-25T02:59:34.579Z,7.00
2023-02-25T03:04:42.959Z,5.97
2023-02-25T03:09:50.238Z,7.80
2023-02-25T03:14:53.645Z,10.20
2023-02-25T03:20:04.225Z,11.40
2023-02-25T03:25:14.048Z,3.47
2023-02-25T03:30:25.524Z,9.20
2023-02-25T03:35:31.769Z,4.93
2023-02-25T03:40:35.849Z,11.70
2023-02-25T03:45:40.863Z,4.23
2023-02-25T03:50:49.656Z,4.57
2023-02-25T03:55:53.842Z,11.87
2023-02-25T04:01:02.528Z,4.90
2023-02-25T04:06:10.379Z,3.90
2023-02-25T04:11:13.774Z,6.17
2023-02-25T04:16:19.182Z,4.37
2023-02-25T04:21:30.388Z,5.63
2023-02-25T04:26:33.701Z,5.93
2023-02-25T04:31:36.730Z,5.87
2023-02-25T04:36:41.568Z,3.20
2023-02-25T04:41:45.135Z,9.33
2023-02-25T04:46:51.832Z,2.17
2023-02-25T04:51:56.251Z,1.70
2023-02-25T04:56:59.184Z,3.97
2023-02-25T05:02:02.165Z,1.30
2023-02-25T05:07:07.850Z,2.50
2023-02-25T05:12:10.792Z,1.30
2023-02-25T05:17:15.726Z,1.53
2023-02-25T05:22:20.862Z,1.60
2023-02-25T05:27:23.741Z,2.90
2023-02-25T05:32:26.759Z,1.87
2023-02-25T05:37:32.814Z,2.10
2023-02-25T05:42:35.757Z,2.40
2023-02-25T05:47:38.859Z,2.37
2023-02-25T05:52:43.215Z,1.63
2023-02-25T05:57:46.125Z,4.73
2023-02-25T06:02:49.214Z,4.97
2023-02-25T06:07:53.481Z,1.90
2023-02-25T06:12:56.454Z,1.67
2023-02-25T06:17:59.398Z,2.43
2023-02-25T06:23:03.956Z,2.70
2023-02-25T06:28:06.969Z,4.20
2023-02-25T06:33:09.982Z,4.03
2023-02-25T06:38:14.379Z,4.97
2023-02-25T06:43:17.553Z,6.03
2023-02-25T06:48:20.474Z,6.50
2023-02-25T06:53:24.712Z,4.63
2023-02-25T06:58:27.623Z,5.60
2023-02-25T07:03:30.493Z,5.10
2023-02-25T07:08:34.784Z,6.83
2023-02-25T07:13:37.875Z,4.50
2023-02-25T07:18:40.880Z,4.00
2023-02-25T07:23:46.540Z,3.70
2023-02-25T07:28:49.497Z,6.80
2023-02-25T07:33:53.108Z,3.70
2023-02-25T07:38:57.651Z,4.00
2023-02-25T07:44:00.510Z,3.30
2023-02-25T07:49:03.886Z,4.93
2023-02-25T07:54:08.252Z,5.83
2023-02-25T07:59:11.408Z,3.60
2023-02-25T08:04:14.375Z,3.67
2023-02-25T08:09:18.830Z,6.53
2023-02-25T08:14:22.704Z,7.40
2023-02-25T08:19:25.748Z,6.80
2023-02-25T08:24:30.026Z,3.67
2023-02-25T08:29:32.947Z,4.53
2023-02-25T08:34:36.155Z,5.17
2023-02-25T08:39:40.583Z,5.60
2023-02-25T08:44:43.763Z,3.97
2023-02-25T08:49:47.549Z,3.73
2023-02-25T08:54:51.989Z,4.00
2023-02-25T08:59:55.246Z,4.77
2023-02-25T09:04:58.188Z,5.60
2023-02-25T09:10:04.110Z,3.37
2023-02-25T09:15:08.686Z,3.50
2023-02-25T09:20:12.434Z,7.17
2023-02-25T09:25:16.795Z,1.60
2023-02-25T09:30:19.782Z,4.37
2023-02-25T09:35:22.916Z,4.53
2023-02-25T09:40:27.834Z,1.47
2023-02-25T09:45:34.224Z,5.30
2023-02-25T09:50:42.998Z,2.30
2023-02-25T09:55:50.089Z,2.50
2023-02-25T10:01:02.840Z,3.20
2023-02-25T10:06:14.276Z,3.37
2023-02-25T10:11:27.551Z,1.50
2023-02-25T10:16:42.294Z,2.30
2023-02-25T10:22:09.949Z,2.17
2023-02-25T10:27:21.913Z,2.50
2023-02-25T10:32:27.386Z,2.10
2023-02-25T10:37:35.824Z,2.07
2023-02-25T10:42:40.134Z,2.03
2023-02-25T10:47:46.340Z,1.97
2023-02-25T10:52:54.970Z,2.40
2023-02-25T10:58:00.797Z,4.07
2023-02-25T11:03:05.804Z,2.97
2023-02-25T11:08:27.663Z,2.60
2023-02-25T11:13:36.331Z,2.20
2023-02-25T11:18:40.663Z,2.70
2023-02-25T11:23:48.025Z,2.93
2023-02-25T11:28:52.564Z,2.90
2023-02-25T11:33:59.602Z,3.27
2023-02-25T11:39:18.077Z,4.47
2023-02-25T11:44:27.969Z,2.97
2023-02-25T11:50:05.024Z,3.63
2023-02-25T11:55:19.042Z,5.03
2023-02-25T12:00:30.605Z,4.97
2023-02-25T12:05:48.570Z,5.40
2023-02-25T12:11:24.660Z,5.07
2023-02-25T12:17:03.034Z,5.20
2023-02-25T12:22:37.672Z,3.80
2023-02-25T12:27:58.929Z,3.50
2023-02-25T12:33:15.960Z,4.60
2023-02-25T12:39:01.364Z,3.07
2023-02-25T12:44:25.058Z,4.87
2023-02-25T12:49:55.887Z,2.40
2023-02-25T12:55:21.143Z,3.77
2023-02-25T13:00:44.929Z,4.50
2023-02-25T13:06:32.999Z,4.23
2023-02-25T13:12:10.132Z,2.67
2023-02-25T13:17:26.866Z,2.33
2023-02-25T13:22:44.786Z,3.60
2023-02-25T13:28:13.177Z,2.20
2023-02-25T13:33:29.641Z,2.83
2023-02-25T13:38:57.973Z,3.03
2023-02-25T13:44:20.360Z,2.30
2023-02-25T13:49:42.058Z,4.63
2023-02-25T13:55:09.990Z,1.73
2023-02-25T14:00:40.382Z,3.10
2023-02-25T14:06:00.478Z,2.03
2023-02-25T14:11:29.795Z,2.57
2023-02-25T14:16:41.438Z,2.40
2023-02-25T14:22:21.244Z,1.90
2023-02-25T14:27:37.053Z,1.23
2023-02-25T14:32:55.380Z,1.20
2023-02-25T14:38:09.101Z,1.10
2023-02-25T14:43:32.312Z,1.80
2023-02-25T14:48:42.580Z,1.23
2023-02-25T14:54:03.363Z,1.27
2023-02-25T14:59:36.885Z,0.80
2023-02-25T15:05:15.460Z,2.00
2023-02-25T15:10:34.565Z,2.20
2023-02-25T15:15:58.472Z,1.30
2023-02-25T15:21:35.888Z,2.03
2023-02-25T15:26:45.438Z,3.30
2023-02-25T15:32:16.686Z,1.73
2023-02-25T15:38:01.091Z,1.83
2023-02-25T15:43:42.437Z,2.57
2023-02-25T15:49:02.807Z,3.20
2023-02-25T15:54:06.409Z,2.10
2023-02-25T15:59:09.404Z,2.23
2023-02-25T16:04:46.084Z,2.30
2023-02-25T16:09:56.285Z,1.40
2023-02-25T16:15:00.676Z,1.20
2023-02-25T16:20:14.566Z,1.23
2023-02-25T16:25:23.497Z,2.00
2023-02-25T16:30:34.510Z,1.73
2023-02-25T16:35:48.380Z,2.47
2023-02-25T16:40:52.232Z,2.83
2023-02-25T16:45:58.510Z,1.50
2023-02-25T16:51:10.395Z,1.80
2023-02-25T16:56:19.926Z,2.30
2023-02-25T17:01:23.942Z,2.40
2023-02-25T17:06:28.353Z,3.80
2023-02-25T17:11:31.758Z,5.57
2023-02-25T17:16:41.786Z,3.50
2023-02-25T17:21:51.912Z,3.30
2023-02-25T17:26:55.423Z,2.17
2023-02-25T17:31:58.441Z,1.40
2023-02-25T17:37:08.386Z,2.40
2023-02-25T17:42:32.174Z,3.07
2023-02-25T17:47:38.060Z,2.27
2023-02-25T17:52:49.164Z,8.03
2023-02-25T17:57:54.847Z,2.23
2023-02-25T18:03:17.471Z,3.23
2023-02-25T18:08:23.945Z,7.93
2023-02-25T18:13:35.323Z,2.73
2023-02-25T18:18:38.321Z,6.90
2023-02-25T18:23:42.747Z,5.97
2023-02-25T18:28:47.425Z,4.10
2023-02-25T18:33:50.657Z,4.00
2023-02-25T18:38:58.298Z,2.70
2023-02-25T18:44:02.417Z,5.73
2023-02-25T18:49:05.544Z,10.17
2023-02-25T18:54:16.144Z,6.73
2023-02-25T18:59:19.707Z,4.80
2023-02-25T19:04:22.708Z,5.00
2023-02-25T19:09:28.481Z,6.03
2023-02-25T19:14:32.689Z,3.70
2023-02-25T19:19:36.177Z,3.20
2023-02-25T19:24:40.507Z,3.90
2023-02-25T19:29:43.462Z,2.17
2023-02-25T19:34:46.454Z,3.43
2023-02-25T19:39:51.104Z,2.70
2023-02-25T19:44:54.462Z,5.07
2023-02-25T19:49:57.494Z,3.23
2023-02-25T19:55:02.343Z,3.23
2023-02-25T20:00:08.706Z,2.50
2023-02-25T20:05:32.450Z,6.57
2023-02-25T20:10:37.525Z,7.20
2023-02-25T20:15:41.068Z,4.37
2023-02-25T20:20:44.055Z,3.60
2023-02-25T20:25:48.568Z,2.57
2023-02-25T20:30:51.481Z,5.43
2023-02-25T20:35:54.640Z,3.10
2023-02-25T20:40:59.168Z,3.80
2023-02-25T20:46:02.344Z,4.90
2023-02-25T20:51:05.824Z,2.53
2023-02-25T20:56:12.980Z,3.43
2023-02-25T21:01:15.963Z,3.93
2023-02-25T21:06:19.728Z,4.13
2023-02-25T21:11:25.618Z,3.50
2023-02-25T21:16:28.775Z,2.93
2023-02-25T21:21:36.948Z,3.20
2023-02-25T21:26:41.244Z,5.13
2023-02-25T21:31:45.616Z,4.27
2023-02-25T21:36:48.666Z,2.87
2023-02-25T21:41:53.001Z,3.63
2023-02-25T21:46:58.059Z,4.07
2023-02-25T21:52:01.511Z,3.33
2023-02-25T21:57:06.546Z,4.10
2023-02-25T22:02:11.309Z,2.60
2023-02-25T22:07:14.442Z,4.90
2023-02-25T22:12:18.688Z,2.43
2023-02-25T22:17:21.540Z,3.50
2023-02-25T22:22:24.443Z,11.63
2023-02-25T22:27:28.734Z,24.67
2023-02-25T22:32:31.726Z,11.33
2023-02-25T22:37:35.254Z,5.53
2023-02-25T22:42:39.579Z,11.87
2023-02-25T22:47:43.166Z,5.80
2023-02-25T22:52:46.092Z,5.77
2023-02-25T22:57:50.328Z,4.10
2023-02-25T23:02:53.287Z,3.77
2023-02-25T23:07:56.251Z,2.90
2023-02-25T23:13:02.311Z,9.40
2023-02-25T23:18:08.598Z,4.80
2023-02-25T23:23:17.383Z,6.50
2023-02-25T23:28:21.695Z,4.93
2023-02-25T23:33:24.624Z,3.40
2023-02-25T23:38:28.409Z,2.57
2023-02-25T23:43:32.912Z,3.77
2023-02-25T23:48:35.767Z,4.03
2023-02-25T23:53:38.667Z,4.73
2023-02-25T23:58:42.946Z,2.40
